createdAt,value
2022-11-22T00:05:12.836Z,95.0
2022-11-22T00:19:12.826Z,95.0
2022-11-22T00:33:12.850Z,96.0
2022-11-22T00:48:12.819Z,96.0
2022-11-22T01:02:12.871Z,97.0
2022-11-22T01:16:12.870Z,97.0
2022-11-22T01:30:12.916Z,96.0
2022-11-22T01:44:12.921Z,96.0
2022-11-22T01:58:12.928Z,97.0
2022-11-22T02:12:12.894Z,97.0
2022-11-22T02:26:12.904Z,97.0
2022-11-22T02:40:12.903Z,97.0
2022-11-22T02:54:12.930Z,97.0
2022-11-22T03:08:12.986Z,97.0
2022-11-22T03:22:12.981Z,95.0
2022-11-22T03:36:12.997Z,93.0
2022-11-22T03:50:13.054Z,92.0
2022-11-22T04:04:13.004Z,93.0
2022-11-22T04:18:13.059Z,94.0
2022-11-22T04:32:13.367Z,94.0
2022-11-22T04:46:13.466Z,94.0
2022-11-22T05:00:13.516Z,94.0
2022-11-22T05:14:13.482Z,94.0
2022-11-22T05:28:13.492Z,95.0
2022-11-22T05:42:13.451Z,95.0
2022-11-22T05:56:13.457Z,96.0
2022-11-22T06:10:13.498Z,95.0
2022-11-22T06:24:13.519Z,95.0
2022-11-22T06:39:13.554Z,94.0
2022-11-22T06:54:13.527Z,93.0
2022-11-22T07:09:13.538Z,94.0
2022-11-22T07:24:13.572Z,94.0
2022-11-22T07:39:13.527Z,95.0
2022-11-22T07:54:13.539Z,95.0
2022-11-22T08:09:13.559Z,94.0
2022-11-22T08:25:13.595Z,94.0
2022-11-22T08:40:13.689Z,94.0
2022-11-22T08:56:13.704Z,93.0
2022-11-22T09:11:13.728Z,93.0
2022-11-22T09:27:13.784Z,93.0
2022-11-22T09:42:13.792Z,91.0
2022-11-22T09:57:13.797Z,91.0
2022-11-22T10:12:13.784Z,88.0
2022-11-22T10:27:13.840Z,89.0
2022-11-22T10:42:13.839Z,86.0
2022-11-22T10:49:23.930Z,85.0
2022-11-22T11:04:23.805Z,87.0
2022-11-22T11:19:24.132Z,86.0
2022-11-22T11:34:24.159Z,86.0
2022-11-22T11:49:24.163Z,86.0
2022-11-22T12:04:24.207Z,88.0
2022-11-22T12:19:25.096Z,86.0
2022-11-22T12:34:24.225Z,85.0
2022-11-22T12:49:24.220Z,87.0
2022-11-22T13:04:24.355Z,88.0
2022-11-22T13:19:24.412Z,90.0
2022-11-22T13:34:24.541Z,90.0
2022-11-22T13:50:24.571Z,90.0
2022-11-22T14:05:24.670Z,88.0
2022-11-22T14:20:24.643Z,90.0
2022-11-22T14:35:29.144Z,91.0
2022-11-22T14:51:27.883Z,90.0
2022-11-22T15:09:09.184Z,91.0
2022-11-22T16:06:03.778Z,90.0
2022-11-22T16:19:24.959Z,92.0
2022-11-22T16:33:25.053Z,92.0
2022-11-22T16:47:25.094Z,92.0
2022-11-22T17:01:25.173Z,93.0
2022-11-22T17:15:25.247Z,95.0
2022-11-22T17:29:49.673Z,95.0
2022-11-22T17:43:25.293Z,93.0
2022-11-22T17:57:25.251Z,91.0
2022-11-22T18:11:25.298Z,88.0
2022-11-22T18:25:25.272Z,86.0
2022-11-22T18:39:25.340Z,87.0
2022-11-22T18:53:25.736Z,92.0
2022-11-22T19:07:25.925Z,94.0
2022-11-22T19:21:25.856Z,94.0
2022-11-22T19:35:25.918Z,96.0
2022-11-22T19:49:25.979Z,96.0
2022-11-22T20:03:25.980Z,96.0
2022-11-22T20:17:25.928Z,97.0
2022-11-22T20:31:25.969Z,97.0
2022-11-22T20:45:25.971Z,97.0
2022-11-22T20:59:25.983Z,97.0
2022-11-22T21:13:26.029Z,97.0
2022-11-22T21:27:26.030Z,98.0
2022-11-22T21:41:39.628Z,98.0
2022-11-22T21:55:26.034Z,98.0
2022-11-22T22:09:26.056Z,98.0
2022-11-22T22:23:26.068Z,98.0
2022-11-22T22:37:26.079Z,98.0
2022-11-22T22:51:31.782Z,98.0
2022-11-22T23:05:26.045Z,98.0
2022-11-22T23:19:26.079Z,98.0
2022-11-22T23:30:55.879Z,98.0
2022-11-22T23:44:56.039Z,98.0
2022-11-22T23:58:55.953Z,96.0
